首页
METAR-TAF:

METAR-TAF

机场 :

塔拉迪加, 阿拉巴马州, 美国

纬度: 33-34-10N, 经度: 086-03-04W, 海拔: 160米

当前天气观测

该预报发布于20分钟前的15:35 UTC
静风
温度 4°C
湿度 87%
气压 1022 hPa
能見度: 16.1公里
多云层高于5000英尺
阴天层高于7000英尺

METAR: KASN 261535Z AUTO 00000KT 10SM BKN050 OVC070 04/02 A3017 RMK AO2 T00360022

时间: 09:55 (15:55 UTC)

预报

该预报发布于4小时和32分钟前的11:23 UTC
预报有效从26日的 12点(UTC)到 27日的 12点(UTC)
风速节,风向
能見度: 6.4公里
散云层高于20000英尺
轻雾
短暂存在
从 26日的 12点(UTC)到 26日的 13点(UTC)
能見度: 1.6公里
多云层高于100英尺
轻雾
从 26日的 1400点(UTC)
风速节,风向
能見度: 10公里
散云层高于20000英尺
几率 30%
从 27日的 00点(UTC)到 27日的 03点(UTC)
能見度: 6.4公里
阴天层高于2500英尺
小雨
从 27日的 0300点(UTC)
风速节,风向
能見度: 10公里
阴天层高于4500英尺
小雨
从 27日的 0500点(UTC)
风速节,风向
能見度: 10公里
阴天层高于2900英尺
小雨
从 27日的 0700点(UTC)
风速节,风向
能見度: 10公里
阴天层高于1700英尺
小雨
从 27日的 0900点(UTC)
风速节,风向
能見度: 9.7公里
阴天层高于800英尺
小雨

TAF: KASN 261123Z 2612/2712 00000KT 4SM BR SCT200 TEMPO 2612/2613 1SM BR BKN001 FM261400 00000KT P6SM SCT200 PROB30 2700/2703 4SM -RA OVC025 FM270300 00000KT P6SM -RA OVC045 FM270500 00000KT P6SM -RA OVC029 FM270700 00000KT P6SM -RA OVC017 FM270900 00000KT 6SM -RA OVC008

超过4000个机场的气象观测和天气预报(METAR&TAF报告)。

可查询的气象台以黄色和红色小点在地图上表示。

将鼠标移到小点上方,可查看气象台名称。

然后点击查看天气观测和预报。

如需切换地图:点击带黑十字的绿色按钮放大地图;点击带横线的绿色按钮缩小地图;或者点击绿色箭头查看邻近地区的地图。


METAR-TAF: